sensor_id;sensor_type;location;lat;lon;timestamp;P1;durP1;ratioP1;P2;durP2;ratioP2
40198;SDS011;25906;43.536;26.068;2022-07-29T00:01:05;5.90;;;3.42;;
40198;SDS011;25906;43.536;26.068;2022-07-29T00:03:51;4.05;;;3.50;;
40198;SDS011;25906;43.536;26.068;2022-07-29T00:06:37;9.88;;;4.00;;
40198;SDS011;25906;43.536;26.068;2022-07-29T00:09:23;4.07;;;3.30;;
40198;SDS011;25906;43.536;26.068;2022-07-29T00:12:08;4.03;;;3.13;;
40198;SDS011;25906;43.536;26.068;2022-07-29T00:14:54;4.47;;;3.05;;
40198;SDS011;25906;43.536;26.068;2022-07-29T00:17:40;4.88;;;3.70;;
40198;SDS011;25906;43.536;26.068;2022-07-29T00:20:26;4.05;;;3.53;;
40198;SDS011;25906;43.536;26.068;2022-07-29T00:23:11;3.40;;;3.10;;
40198;SDS011;25906;43.536;26.068;2022-07-29T00:25:57;4.70;;;3.28;;
40198;SDS011;25906;43.536;26.068;2022-07-29T00:28:43;4.82;;;2.80;;
40198;SDS011;25906;43.536;26.068;2022-07-29T00:31:28;4.22;;;3.25;;
40198;SDS011;25906;43.536;26.068;2022-07-29T00:34:14;3.47;;;3.13;;
40198;SDS011;25906;43.536;26.068;2022-07-29T00:37:18;3.63;;;3.20;;
40198;SDS011;25906;43.536;26.068;2022-07-29T00:40:03;6.15;;;3.58;;
40198;SDS011;25906;43.536;26.068;2022-07-29T00:42:50;5.85;;;3.58;;
40198;SDS011;25906;43.536;26.068;2022-07-29T00:45:36;3.72;;;3.40;;
40198;SDS011;25906;43.536;26.068;2022-07-29T00:48:22;3.22;;;2.92;;
40198;SDS011;25906;43.536;26.068;2022-07-29T00:51:08;3.53;;;2.72;;
40198;SDS011;25906;43.536;26.068;2022-07-29T00:53:55;3.90;;;3.28;;
40198;SDS011;25906;43.536;26.068;2022-07-29T00:56:41;5.35;;;3.50;;
40198;SDS011;25906;43.536;26.068;2022-07-29T00:59:28;4.95;;;3.53;;
40198;SDS011;25906;43.536;26.068;2022-07-29T01:02:14;4.65;;;3.45;;
40198;SDS011;25906;43.536;26.068;2022-07-29T01:05:00;5.05;;;3.45;;
40198;SDS011;25906;43.536;26.068;2022-07-29T01:07:47;6.53;;;3.15;;
40198;SDS011;25906;43.536;26.068;2022-07-29T01:10:35;7.18;;;3.30;;
40198;SDS011;25906;43.536;26.068;2022-07-29T01:13:23;5.43;;;3.47;;
40198;SDS011;25906;43.536;26.068;2022-07-29T01:31:31;5.65;;;4.05;;
40198;SDS011;25906;43.536;26.068;2022-07-29T01:34:27;6.78;;;4.78;;
40198;SDS011;25906;43.536;26.068;2022-07-29T01:37:29;7.35;;;4.10;;
40198;SDS011;25906;43.536;26.068;2022-07-29T01:40:25;4.28;;;3.55;;
40198;SDS011;25906;43.536;26.068;2022-07-29T01:43:17;4.82;;;3.25;;
40198;SDS011;25906;43.536;26.068;2022-07-29T01:46:06;6.93;;;3.80;;
40198;SDS011;25906;43.536;26.068;2022-07-29T01:49:01;4.53;;;3.47;;
40198;SDS011;25906;43.536;26.068;2022-07-29T01:52:00;4.20;;;3.40;;
40198;SDS011;25906;43.536;26.068;2022-07-29T01:54:57;4.57;;;3.00;;
40198;SDS011;25906;43.536;26.068;2022-07-29T01:57:48;4.20;;;3.40;;
40198;SDS011;25906;43.536;26.068;2022-07-29T02:00:34;5.80;;;3.88;;
40198;SDS011;25906;43.536;26.068;2022-07-29T02:03:21;10.10;;;3.53;;
40198;SDS011;25906;43.536;26.068;2022-07-29T02:06:08;4.07;;;3.25;;
40198;SDS011;25906;43.536;26.068;2022-07-29T02:08:56;4.07;;;3.45;;
40198;SDS011;25906;43.536;26.068;2022-07-29T02:11:47;5.78;;;3.45;;
40198;SDS011;25906;43.536;26.068;2022-07-29T02:14:47;6.45;;;3.40;;
40198;SDS011;25906;43.536;26.068;2022-07-29T02:17:39;8.02;;;3.42;;
40198;SDS011;25906;43.536;26.068;2022-07-29T02:20:27;4.13;;;3.05;;
40198;SDS011;25906;43.536;26.068;2022-07-29T02:23:22;4.47;;;3.50;;
40198;SDS011;25906;43.536;26.068;2022-07-29T02:26:09;5.10;;;3.40;;
40198;SDS011;25906;43.536;26.068;2022-07-29T02:28:55;4.43;;;3.30;;
40198;SDS011;25906;43.536;26.068;2022-07-29T02:31:42;3.15;;;2.78;;
40198;SDS011;25906;43.536;26.068;2022-07-29T02:34:32;4.32;;;2.92;;
40198;SDS011;25906;43.536;26.068;2022-07-29T02:37:19;3.92;;;2.70;;
40198;SDS011;25906;43.536;26.068;2022-07-29T02:40:08;3.95;;;2.58;;
40198;SDS011;25906;43.536;26.068;2022-07-29T02:42:56;2.60;;;2.40;;
40198;SDS011;25906;43.536;26.068;2022-07-29T02:48:32;3.37;;;2.67;;
40198;SDS011;25906;43.536;26.068;2022-07-29T02:51:27;3.78;;;2.70;;
40198;SDS011;25906;43.536;26.068;2022-07-29T02:54:22;2.97;;;2.67;;
40198;SDS011;25906;43.536;26.068;2022-07-29T02:57:19;4.10;;;3.03;;
40198;SDS011;25906;43.536;26.068;2022-07-29T03:00:08;4.00;;;3.22;;
40198;SDS011;25906;43.536;26.068;2022-07-29T03:02:57;5.95;;;3.50;;
40198;SDS011;25906;43.536;26.068;2022-07-29T03:05:45;7.90;;;3.40;;
40198;SDS011;25906;43.536;26.068;2022-07-29T03:08:30;4.90;;;3.90;;
40198;SDS011;25906;43.536;26.068;2022-07-29T03:11:17;4.85;;;3.72;;
40198;SDS011;25906;43.536;26.068;2022-07-29T03:14:04;4.28;;;3.85;;
40198;SDS011;25906;43.536;26.068;2022-07-29T03:16:50;5.88;;;4.18;;
40198;SDS011;25906;43.536;26.068;2022-07-29T03:19:38;8.15;;;4.35;;
40198;SDS011;25906;43.536;26.068;2022-07-29T03:22:24;5.03;;;3.58;;
40198;SDS011;25906;43.536;26.068;2022-07-29T03:25:10;7.80;;;4.50;;
40198;SDS011;25906;43.536;26.068;2022-07-29T03:27:57;7.10;;;4.60;;
40198;SDS011;25906;43.536;26.068;2022-07-29T03:30:42;4.88;;;4.22;;
40198;SDS011;25906;43.536;26.068;2022-07-29T03:33:28;5.60;;;4.22;;
40198;SDS011;25906;43.536;26.068;2022-07-29T03:36:15;6.45;;;3.78;;
40198;SDS011;25906;43.536;26.068;2022-07-29T03:39:01;6.25;;;4.07;;
40198;SDS011;25906;43.536;26.068;2022-07-29T03:41:49;5.85;;;4.70;;
40198;SDS011;25906;43.536;26.068;2022-07-29T03:44:37;6.65;;;4.47;;
40198;SDS011;25906;43.536;26.068;2022-07-29T03:47:26;6.35;;;4.30;;
40198;SDS011;25906;43.536;26.068;2022-07-29T03:50:14;5.53;;;4.50;;
40198;SDS011;25906;43.536;26.068;2022-07-29T03:53:01;4.32;;;3.92;;
40198;SDS011;25906;43.536;26.068;2022-07-29T03:55:52;4.65;;;4.20;;
40198;SDS011;25906;43.536;26.068;2022-07-29T03:58:40;6.07;;;3.85;;
40198;SDS011;25906;43.536;26.068;2022-07-29T04:01:26;4.45;;;3.92;;
40198;SDS011;25906;43.536;26.068;2022-07-29T04:04:13;4.53;;;3.80;;
40198;SDS011;25906;43.536;26.068;2022-07-29T04:06:58;3.78;;;3.40;;
40198;SDS011;25906;43.536;26.068;2022-07-29T04:09:44;5.20;;;3.40;;
40198;SDS011;25906;43.536;26.068;2022-07-29T04:12:29;4.03;;;3.10;;
40198;SDS011;25906;43.536;26.068;2022-07-29T04:15:15;3.83;;;2.92;;
40198;SDS011;25906;43.536;26.068;2022-07-29T04:18:02;4.38;;;3.10;;
40198;SDS011;25906;43.536;26.068;2022-07-29T04:20:48;4.35;;;3.38;;
40198;SDS011;25906;43.536;26.068;2022-07-29T04:23:33;3.83;;;3.45;;
40198;SDS011;25906;43.536;26.068;2022-07-29T04:26:20;4.13;;;3.72;;
40198;SDS011;25906;43.536;26.068;2022-07-29T04:29:06;4.43;;;4.03;;
40198;SDS011;25906;43.536;26.068;2022-07-29T04:31:51;5.65;;;4.60;;
40198;SDS011;25906;43.536;26.068;2022-07-29T04:34:36;6.75;;;4.50;;
40198;SDS011;25906;43.536;26.068;2022-07-29T04:37:22;5.20;;;4.32;;
40198;SDS011;25906;43.536;26.068;2022-07-29T04:40:08;3.60;;;3.30;;
40198;SDS011;25906;43.536;26.068;2022-07-29T04:42:54;5.25;;;3.25;;
40198;SDS011;25906;43.536;26.068;2022-07-29T04:45:39;5.55;;;3.25;;
40198;SDS011;25906;43.536;26.068;2022-07-29T04:48:25;4.05;;;3.55;;
40198;SDS011;25906;43.536;26.068;2022-07-29T04:51:11;5.50;;;3.55;;
40198;SDS011;25906;43.536;26.068;2022-07-29T04:53:58;5.30;;;3.03;;
40198;SDS011;25906;43.536;26.068;2022-07-29T04:56:44;6.35;;;3.80;;
40198;SDS011;25906;43.536;26.068;2022-07-29T04:59:31;4.68;;;3.30;;
40198;SDS011;25906;43.536;26.068;2022-07-29T05:02:17;5.45;;;3.47;;
40198;SDS011;25906;43.536;26.068;2022-07-29T05:05:02;4.30;;;3.45;;
40198;SDS011;25906;43.536;26.068;2022-07-29T05:10:34;5.13;;;3.25;;
40198;SDS011;25906;43.536;26.068;2022-07-29T05:13:23;4.20;;;3.40;;
40198;SDS011;25906;43.536;26.068;2022-07-29T05:18:54;5.38;;;3.30;;
40198;SDS011;25906;43.536;26.068;2022-07-29T05:21:39;5.03;;;3.30;;
40198;SDS011;25906;43.536;26.068;2022-07-29T05:24:25;10.52;;;3.03;;
40198;SDS011;25906;43.536;26.068;2022-07-29T05:27:11;4.07;;;3.05;;
40198;SDS011;25906;43.536;26.068;2022-07-29T05:29:56;3.28;;;2.97;;
40198;SDS011;25906;43.536;26.068;2022-07-29T05:32:42;5.35;;;3.30;;
40198;SDS011;25906;43.536;26.068;2022-07-29T05:35:28;5.03;;;2.92;;
40198;SDS011;25906;43.536;26.068;2022-07-29T05:38:13;3.53;;;3.13;;
40198;SDS011;25906;43.536;26.068;2022-07-29T05:40:59;4.15;;;3.00;;
40198;SDS011;25906;43.536;26.068;2022-07-29T05:43:45;3.47;;;3.10;;
40198;SDS011;25906;43.536;26.068;2022-07-29T05:46:31;4.07;;;3.22;;
40198;SDS011;25906;43.536;26.068;2022-07-29T05:49:16;3.85;;;3.03;;
40198;SDS011;25906;43.536;26.068;2022-07-29T05:52:02;8.45;;;3.30;;
40198;SDS011;25906;43.536;26.068;2022-07-29T05:54:48;3.65;;;3.25;;
40198;SDS011;25906;43.536;26.068;2022-07-29T05:57:34;4.90;;;3.42;;
40198;SDS011;25906;43.536;26.068;2022-07-29T06:00:19;5.28;;;3.65;;
40198;SDS011;25906;43.536;26.068;2022-07-29T06:03:05;4.07;;;3.38;;
40198;SDS011;25906;43.536;26.068;2022-07-29T06:05:51;4.53;;;3.50;;
40198;SDS011;25906;43.536;26.068;2022-07-29T06:08:37;3.67;;;3.20;;
40198;SDS011;25906;43.536;26.068;2022-07-29T06:11:23;4.63;;;3.53;;
40198;SDS011;25906;43.536;26.068;2022-07-29T06:14:09;4.22;;;2.92;;
40198;SDS011;25906;43.536;26.068;2022-07-29T06:16:54;4.63;;;3.55;;
40198;SDS011;25906;43.536;26.068;2022-07-29T06:19:40;4.60;;;3.78;;
40198;SDS011;25906;43.536;26.068;2022-07-29T06:22:26;4.30;;;3.55;;
40198;SDS011;25906;43.536;26.068;2022-07-29T06:25:11;6.65;;;4.10;;
40198;SDS011;25906;43.536;26.068;2022-07-29T06:27:57;6.88;;;4.35;;
40198;SDS011;25906;43.536;26.068;2022-07-29T06:30:43;4.80;;;3.92;;
40198;SDS011;25906;43.536;26.068;2022-07-29T06:33:28;4.53;;;4.13;;
40198;SDS011;25906;43.536;26.068;2022-07-29T06:36:14;4.78;;;3.30;;
40198;SDS011;25906;43.536;26.068;2022-07-29T06:39:00;5.95;;;3.58;;
40198;SDS011;25906;43.536;26.068;2022-07-29T06:44:34;6.10;;;3.47;;
40198;SDS011;25906;43.536;26.068;2022-07-29T06:47:19;5.38;;;3.50;;
40198;SDS011;25906;43.536;26.068;2022-07-29T06:50:05;4.22;;;3.60;;
40198;SDS011;25906;43.536;26.068;2022-07-29T06:52:51;3.50;;;3.00;;
40198;SDS011;25906;43.536;26.068;2022-07-29T06:55:36;4.78;;;3.10;;
40198;SDS011;25906;43.536;26.068;2022-07-29T06:58:22;4.60;;;3.05;;
40198;SDS011;25906;43.536;26.068;2022-07-29T07:01:07;4.13;;;3.20;;
40198;SDS011;25906;43.536;26.068;2022-07-29T07:06:39;6.35;;;3.20;;
40198;SDS011;25906;43.536;26.068;2022-07-29T07:09:25;3.28;;;2.70;;
40198;SDS011;25906;43.536;26.068;2022-07-29T07:14:56;3.33;;;2.92;;
40198;SDS011;25906;43.536;26.068;2022-07-29T07:17:41;5.05;;;2.67;;
40198;SDS011;25906;43.536;26.068;2022-07-29T07:20:27;3.60;;;2.65;;
40198;SDS011;25906;43.536;26.068;2022-07-29T07:25:58;6.63;;;2.60;;
40198;SDS011;25906;43.536;26.068;2022-07-29T07:31:30;3.80;;;3.25;;
40198;SDS011;25906;43.536;26.068;2022-07-29T07:34:15;3.92;;;3.25;;
40198;SDS011;25906;43.536;26.068;2022-07-29T07:39:47;3.88;;;3.40;;
40198;SDS011;25906;43.536;26.068;2022-07-29T07:42:32;3.22;;;2.72;;
40198;SDS011;25906;43.536;26.068;2022-07-29T07:45:18;4.32;;;3.08;;
40198;SDS011;25906;43.536;26.068;2022-07-29T07:48:04;4.00;;;3.45;;
40198;SDS011;25906;43.536;26.068;2022-07-29T07:50:50;3.15;;;2.78;;
40198;SDS011;25906;43.536;26.068;2022-07-29T07:53:36;3.83;;;3.35;;
40198;SDS011;25906;43.536;26.068;2022-07-29T07:59:07;9.18;;;2.83;;
40198;SDS011;25906;43.536;26.068;2022-07-29T08:01:54;4.97;;;2.92;;
40198;SDS011;25906;43.536;26.068;2022-07-29T08:04:39;3.20;;;2.90;;
40198;SDS011;25906;43.536;26.068;2022-07-29T08:07:25;4.65;;;3.20;;
40198;SDS011;25906;43.536;26.068;2022-07-29T08:10:11;5.45;;;3.05;;
40198;SDS011;25906;43.536;26.068;2022-07-29T08:12:58;3.08;;;2.78;;
40198;SDS011;25906;43.536;26.068;2022-07-29T08:15:43;3.83;;;3.30;;
40198;SDS011;25906;43.536;26.068;2022-07-29T08:18:30;3.97;;;3.25;;
40198;SDS011;25906;43.536;26.068;2022-07-29T08:21:16;3.92;;;3.38;;
40198;SDS011;25906;43.536;26.068;2022-07-29T08:24:02;3.70;;;3.25;;
40198;SDS011;25906;43.536;26.068;2022-07-29T08:27:07;3.58;;;3.28;;
40198;SDS011;25906;43.536;26.068;2022-07-29T08:29:52;6.03;;;3.25;;
40198;SDS011;25906;43.536;26.068;2022-07-29T08:32:38;3.90;;;3.20;;
40198;SDS011;25906;43.536;26.068;2022-07-29T08:35:24;3.72;;;3.28;;
40198;SDS011;25906;43.536;26.068;2022-07-29T08:38:10;5.57;;;3.00;;
40198;SDS011;25906;43.536;26.068;2022-07-29T08:40:56;3.80;;;3.40;;
40198;SDS011;25906;43.536;26.068;2022-07-29T08:43:41;3.65;;;3.35;;
40198;SDS011;25906;43.536;26.068;2022-07-29T08:46:27;6.15;;;3.70;;
40198;SDS011;25906;43.536;26.068;2022-07-29T08:49:13;5.53;;;3.10;;
40198;SDS011;25906;43.536;26.068;2022-07-29T08:51:58;3.78;;;3.40;;
40198;SDS011;25906;43.536;26.068;2022-07-29T08:54:45;7.38;;;3.15;;
40198;SDS011;25906;43.536;26.068;2022-07-29T08:57:32;4.00;;;3.60;;
40198;SDS011;25906;43.536;26.068;2022-07-29T09:00:19;4.13;;;3.33;;
40198;SDS011;25906;43.536;26.068;2022-07-29T09:03:06;3.50;;;3.20;;
40198;SDS011;25906;43.536;26.068;2022-07-29T09:05:54;3.35;;;3.00;;
40198;SDS011;25906;43.536;26.068;2022-07-29T09:08:40;4.18;;;3.28;;
40198;SDS011;25906;43.536;26.068;2022-07-29T09:11:26;3.88;;;2.92;;
40198;SDS011;25906;43.536;26.068;2022-07-29T09:14:12;6.95;;;3.17;;
40198;SDS011;25906;43.536;26.068;2022-07-29T09:16:58;6.20;;;3.30;;
40198;SDS011;25906;43.536;26.068;2022-07-29T09:19:44;3.17;;;2.88;;
40198;SDS011;25906;43.536;26.068;2022-07-29T09:22:29;5.25;;;3.17;;
40198;SDS011;25906;43.536;26.068;2022-07-29T09:25:36;3.60;;;2.97;;
40198;SDS011;25906;43.536;26.068;2022-07-29T09:28:23;3.38;;;3.03;;
40198;SDS011;25906;43.536;26.068;2022-07-29T09:31:09;4.55;;;3.38;;
40198;SDS011;25906;43.536;26.068;2022-07-29T09:33:54;3.28;;;2.97;;
40198;SDS011;25906;43.536;26.068;2022-07-29T09:36:47;3.70;;;3.30;;
40198;SDS011;25906;43.536;26.068;2022-07-29T09:39:34;3.25;;;2.67;;
40198;SDS011;25906;43.536;26.068;2022-07-29T09:42:28;6.63;;;2.90;;
40198;SDS011;25906;43.536;26.068;2022-07-29T09:45:28;3.55;;;3.20;;
40198;SDS011;25906;43.536;26.068;2022-07-29T09:48:18;8.38;;;3.05;;
40198;SDS011;25906;43.536;26.068;2022-07-29T09:51:05;11.52;;;3.38;;
40198;SDS011;25906;43.536;26.068;2022-07-29T09:54:24;5.97;;;3.35;;
40198;SDS011;25906;43.536;26.068;2022-07-29T09:57:09;4.63;;;3.25;;
40198;SDS011;25906;43.536;26.068;2022-07-29T10:00:09;3.85;;;3.33;;
40198;SDS011;25906;43.536;26.068;2022-07-29T10:02:58;4.43;;;3.45;;
40198;SDS011;25906;43.536;26.068;2022-07-29T10:05:46;5.68;;;3.22;;
40198;SDS011;25906;43.536;26.068;2022-07-29T10:08:49;3.67;;;3.33;;
40198;SDS011;25906;43.536;26.068;2022-07-29T10:11:35;5.03;;;3.22;;
40198;SDS011;25906;43.536;26.068;2022-07-29T10:14:20;7.50;;;3.40;;
40198;SDS011;25906;43.536;26.068;2022-07-29T10:17:06;3.30;;;3.00;;
40198;SDS011;25906;43.536;26.068;2022-07-29T10:19:54;3.58;;;3.03;;
40198;SDS011;25906;43.536;26.068;2022-07-29T10:22:41;6.68;;;3.63;;
40198;SDS011;25906;43.536;26.068;2022-07-29T10:25:28;6.00;;;3.45;;
40198;SDS011;25906;43.536;26.068;2022-07-29T10:28:13;3.38;;;2.97;;
40198;SDS011;25906;43.536;26.068;2022-07-29T10:31:00;4.20;;;3.42;;
40198;SDS011;25906;43.536;26.068;2022-07-29T10:42:30;5.25;;;3.50;;
40198;SDS011;25906;43.536;26.068;2022-07-29T10:45:16;9.32;;;2.97;;
40198;SDS011;25906;43.536;26.068;2022-07-29T10:48:03;4.30;;;3.47;;
40198;SDS011;25906;43.536;26.068;2022-07-29T10:50:54;3.30;;;3.00;;
40198;SDS011;25906;43.536;26.068;2022-07-29T10:53:47;7.55;;;3.55;;
40198;SDS011;25906;43.536;26.068;2022-07-29T10:56:37;6.68;;;3.22;;
40198;SDS011;25906;43.536;26.068;2022-07-29T10:59:25;8.43;;;3.58;;
40198;SDS011;25906;43.536;26.068;2022-07-29T11:05:18;4.40;;;3.03;;
40198;SDS011;25906;43.536;26.068;2022-07-29T11:08:18;7.55;;;3.63;;
40198;SDS011;25906;43.536;26.068;2022-07-29T11:14:04;6.78;;;2.92;;
40198;SDS011;25906;43.536;26.068;2022-07-29T11:17:00;3.90;;;3.53;;
40198;SDS011;25906;43.536;26.068;2022-07-29T11:19:47;3.30;;;3.00;;
40198;SDS011;25906;43.536;26.068;2022-07-29T11:22:33;3.55;;;2.97;;
40198;SDS011;25906;43.536;26.068;2022-07-29T11:25:21;3.03;;;2.72;;
40198;SDS011;25906;43.536;26.068;2022-07-29T11:28:08;3.92;;;3.00;;
40198;SDS011;25906;43.536;26.068;2022-07-29T11:30:58;3.03;;;2.70;;
40198;SDS011;25906;43.536;26.068;2022-07-29T11:33:45;3.47;;;3.10;;
40198;SDS011;25906;43.536;26.068;2022-07-29T11:36:31;3.33;;;3.03;;
40198;SDS011;25906;43.536;26.068;2022-07-29T11:39:26;3.95;;;3.00;;
40198;SDS011;25906;43.536;26.068;2022-07-29T11:45:16;6.80;;;3.08;;
40198;SDS011;25906;43.536;26.068;2022-07-29T11:48:05;4.28;;;3.15;;
40198;SDS011;25906;43.536;26.068;2022-07-29T11:50:52;4.05;;;3.10;;
40198;SDS011;25906;43.536;26.068;2022-07-29T11:53:41;3.42;;;2.80;;
40198;SDS011;25906;43.536;26.068;2022-07-29T11:59:19;23.27;;;3.75;;
40198;SDS011;25906;43.536;26.068;2022-07-29T12:02:06;6.68;;;3.20;;
40198;SDS011;25906;43.536;26.068;2022-07-29T12:04:52;2.80;;;2.60;;
40198;SDS011;25906;43.536;26.068;2022-07-29T12:07:40;5.15;;;3.00;;
40198;SDS011;25906;43.536;26.068;2022-07-29T12:10:30;2.65;;;2.45;;
40198;SDS011;25906;43.536;26.068;2022-07-29T12:13:17;5.57;;;3.00;;
40198;SDS011;25906;43.536;26.068;2022-07-29T12:16:04;3.50;;;3.08;;
40198;SDS011;25906;43.536;26.068;2022-07-29T12:18:59;3.40;;;3.10;;
40198;SDS011;25906;43.536;26.068;2022-07-29T12:21:48;3.50;;;3.20;;
40198;SDS011;25906;43.536;26.068;2022-07-29T12:24:44;3.28;;;2.75;;
40198;SDS011;25906;43.536;26.068;2022-07-29T12:27:30;3.15;;;2.67;;
40198;SDS011;25906;43.536;26.068;2022-07-29T12:30:16;3.80;;;3.10;;
40198;SDS011;25906;43.536;26.068;2022-07-29T12:33:09;7.43;;;3.25;;
40198;SDS011;25906;43.536;26.068;2022-07-29T12:35:56;4.60;;;2.88;;
40198;SDS011;25906;43.536;26.068;2022-07-29T12:38:43;3.83;;;3.08;;
40198;SDS011;25906;43.536;26.068;2022-07-29T12:41:29;3.30;;;3.00;;
40198;SDS011;25906;43.536;26.068;2022-07-29T12:44:15;5.75;;;3.03;;
40198;SDS011;25906;43.536;26.068;2022-07-29T12:47:04;3.20;;;2.90;;
40198;SDS011;25906;43.536;26.068;2022-07-29T12:49:50;3.17;;;2.83;;
40198;SDS011;25906;43.536;26.068;2022-07-29T12:52:36;3.35;;;2.92;;
40198;SDS011;25906;43.536;26.068;2022-07-29T12:55:41;5.97;;;3.22;;
40198;SDS011;25906;43.536;26.068;2022-07-29T12:58:38;4.55;;;3.30;;
40198;SDS011;25906;43.536;26.068;2022-07-29T13:01:25;4.75;;;3.20;;
40198;SDS011;25906;43.536;26.068;2022-07-29T13:04:23;3.20;;;2.90;;
40198;SDS011;25906;43.536;26.068;2022-07-29T13:07:11;5.60;;;3.08;;
40198;SDS011;25906;43.536;26.068;2022-07-29T13:13:20;4.50;;;3.15;;
40198;SDS011;25906;43.536;26.068;2022-07-29T13:16:06;7.32;;;2.92;;
40198;SDS011;25906;43.536;26.068;2022-07-29T13:19:11;5.53;;;2.90;;
40198;SDS011;25906;43.536;26.068;2022-07-29T13:21:57;3.08;;;2.70;;
40198;SDS011;25906;43.536;26.068;2022-07-29T13:27:36;3.60;;;2.97;;
40198;SDS011;25906;43.536;26.068;2022-07-29T13:30:23;3.38;;;2.95;;
40198;SDS011;25906;43.536;26.068;2022-07-29T13:33:09;6.55;;;2.95;;
40198;SDS011;25906;43.536;26.068;2022-07-29T13:35:55;4.40;;;2.90;;
40198;SDS011;25906;43.536;26.068;2022-07-29T13:38:40;5.10;;;2.97;;
40198;SDS011;25906;43.536;26.068;2022-07-29T13:41:26;4.07;;;3.20;;
40198;SDS011;25906;43.536;26.068;2022-07-29T13:44:11;7.78;;;3.10;;
40198;SDS011;25906;43.536;26.068;2022-07-29T13:46:57;4.13;;;2.85;;
40198;SDS011;25906;43.536;26.068;2022-07-29T13:49:43;3.42;;;3.00;;
40198;SDS011;25906;43.536;26.068;2022-07-29T13:52:29;8.77;;;3.13;;
40198;SDS011;25906;43.536;26.068;2022-07-29T13:55:15;4.95;;;3.17;;
40198;SDS011;25906;43.536;26.068;2022-07-29T13:58:00;3.70;;;3.15;;
40198;SDS011;25906;43.536;26.068;2022-07-29T14:00:46;3.70;;;3.20;;
40198;SDS011;25906;43.536;26.068;2022-07-29T14:03:31;7.22;;;2.90;;
40198;SDS011;25906;43.536;26.068;2022-07-29T14:06:18;3.50;;;3.13;;
40198;SDS011;25906;43.536;26.068;2022-07-29T14:09:04;3.90;;;3.30;;
40198;SDS011;25906;43.536;26.068;2022-07-29T14:11:56;6.57;;;3.10;;
40198;SDS011;25906;43.536;26.068;2022-07-29T14:14:42;4.15;;;2.70;;
40198;SDS011;25906;43.536;26.068;2022-07-29T14:17:28;3.20;;;2.90;;
40198;SDS011;25906;43.536;26.068;2022-07-29T14:20:14;3.60;;;3.20;;
40198;SDS011;25906;43.536;26.068;2022-07-29T14:23:00;3.75;;;3.40;;
40198;SDS011;25906;43.536;26.068;2022-07-29T14:25:46;6.97;;;3.10;;
40198;SDS011;25906;43.536;26.068;2022-07-29T14:28:31;7.65;;;3.00;;
40198;SDS011;25906;43.536;26.068;2022-07-29T14:31:17;6.28;;;2.88;;
40198;SDS011;25906;43.536;26.068;2022-07-29T14:34:03;3.90;;;3.28;;
40198;SDS011;25906;43.536;26.068;2022-07-29T14:36:48;5.20;;;3.15;;
40198;SDS011;25906;43.536;26.068;2022-07-29T14:39:34;2.90;;;2.60;;
40198;SDS011;25906;43.536;26.068;2022-07-29T14:42:23;3.83;;;3.00;;
40198;SDS011;25906;43.536;26.068;2022-07-29T14:45:09;3.50;;;3.13;;
40198;SDS011;25906;43.536;26.068;2022-07-29T14:47:55;6.43;;;2.88;;
40198;SDS011;25906;43.536;26.068;2022-07-29T14:50:41;8.13;;;3.40;;
40198;SDS011;25906;43.536;26.068;2022-07-29T14:53:27;3.70;;;2.97;;
40198;SDS011;25906;43.536;26.068;2022-07-29T14:56:12;3.63;;;3.33;;
40198;SDS011;25906;43.536;26.068;2022-07-29T14:58:58;5.10;;;3.00;;
40198;SDS011;25906;43.536;26.068;2022-07-29T15:01:43;6.75;;;3.03;;
40198;SDS011;25906;43.536;26.068;2022-07-29T15:04:29;3.50;;;3.03;;
40198;SDS011;25906;43.536;26.068;2022-07-29T15:07:15;5.47;;;3.30;;
40198;SDS011;25906;43.536;26.068;2022-07-29T15:10:00;9.13;;;3.35;;
40198;SDS011;25906;43.536;26.068;2022-07-29T15:12:47;4.28;;;3.63;;
40198;SDS011;25906;43.536;26.068;2022-07-29T15:18:18;4.30;;;3.33;;
40198;SDS011;25906;43.536;26.068;2022-07-29T15:21:04;7.30;;;3.40;;
40198;SDS011;25906;43.536;26.068;2022-07-29T15:23:51;3.97;;;2.80;;
40198;SDS011;25906;43.536;26.068;2022-07-29T15:26:39;3.10;;;2.80;;
40198;SDS011;25906;43.536;26.068;2022-07-29T15:29:27;3.03;;;2.83;;
40198;SDS011;25906;43.536;26.068;2022-07-29T15:32:12;3.30;;;2.25;;
40198;SDS011;25906;43.536;26.068;2022-07-29T15:34:59;5.28;;;3.10;;
40198;SDS011;25906;43.536;26.068;2022-07-29T15:37:44;3.70;;;3.15;;
40198;SDS011;25906;43.536;26.068;2022-07-29T15:40:30;3.45;;;3.15;;
40198;SDS011;25906;43.536;26.068;2022-07-29T15:43:16;6.63;;;3.30;;
40198;SDS011;25906;43.536;26.068;2022-07-29T15:49:06;3.78;;;2.80;;
40198;SDS011;25906;43.536;26.068;2022-07-29T15:51:52;3.08;;;2.80;;
40198;SDS011;25906;43.536;26.068;2022-07-29T16:00:09;3.23;;;2.90;;
40198;SDS011;25906;43.536;26.068;2022-07-29T16:02:55;5.15;;;2.90;;
40198;SDS011;25906;43.536;26.068;2022-07-29T16:05:42;6.03;;;2.83;;
40198;SDS011;25906;43.536;26.068;2022-07-29T16:08:27;7.25;;;3.20;;
40198;SDS011;25906;43.536;26.068;2022-07-29T16:13:58;4.15;;;3.20;;
40198;SDS011;25906;43.536;26.068;2022-07-29T16:19:29;3.63;;;2.90;;
40198;SDS011;25906;43.536;26.068;2022-07-29T16:22:15;3.45;;;3.13;;
40198;SDS011;25906;43.536;26.068;2022-07-29T16:27:46;4.20;;;3.15;;
40198;SDS011;25906;43.536;26.068;2022-07-29T16:33:16;3.00;;;2.78;;
40198;SDS011;25906;43.536;26.068;2022-07-29T16:36:02;3.53;;;3.13;;
40198;SDS011;25906;43.536;26.068;2022-07-29T16:38:48;4.60;;;3.40;;
40198;SDS011;25906;43.536;26.068;2022-07-29T16:41:34;3.78;;;3.08;;
40198;SDS011;25906;43.536;26.068;2022-07-29T16:44:20;4.07;;;3.25;;
40198;SDS011;25906;43.536;26.068;2022-07-29T16:47:05;3.72;;;3.08;;
40198;SDS011;25906;43.536;26.068;2022-07-29T16:49:51;5.10;;;3.30;;
40198;SDS011;25906;43.536;26.068;2022-07-29T16:52:37;4.30;;;3.47;;
40198;SDS011;25906;43.536;26.068;2022-07-29T16:55:22;3.60;;;2.92;;
40198;SDS011;25906;43.536;26.068;2022-07-29T16:58:09;3.70;;;3.08;;
40198;SDS011;25906;43.536;26.068;2022-07-29T17:00:55;3.92;;;2.80;;
40198;SDS011;25906;43.536;26.068;2022-07-29T17:03:42;4.53;;;3.20;;
40198;SDS011;25906;43.536;26.068;2022-07-29T17:06:46;4.40;;;3.37;;
40198;SDS011;25906;43.536;26.068;2022-07-29T17:09:33;7.13;;;3.20;;
40198;SDS011;25906;43.536;26.068;2022-07-29T17:15:05;3.80;;;3.40;;
40198;SDS011;25906;43.536;26.068;2022-07-29T17:17:52;4.40;;;3.47;;
40198;SDS011;25906;43.536;26.068;2022-07-29T17:20:39;3.60;;;3.28;;
40198;SDS011;25906;43.536;26.068;2022-07-29T17:23:25;4.30;;;3.17;;
40198;SDS011;25906;43.536;26.068;2022-07-29T17:26:12;6.90;;;3.50;;
40198;SDS011;25906;43.536;26.068;2022-07-29T17:28:58;3.97;;;3.22;;
40198;SDS011;25906;43.536;26.068;2022-07-29T17:34:29;4.87;;;3.43;;
40198;SDS011;25906;43.536;26.068;2022-07-29T17:37:15;7.95;;;3.35;;
40198;SDS011;25906;43.536;26.068;2022-07-29T17:40:02;3.67;;;3.35;;
40198;SDS011;25906;43.536;26.068;2022-07-29T17:42:48;5.47;;;3.15;;
40198;SDS011;25906;43.536;26.068;2022-07-29T17:45:34;3.95;;;3.40;;
40198;SDS011;25906;43.536;26.068;2022-07-29T17:48:20;6.15;;;3.35;;
40198;SDS011;25906;43.536;26.068;2022-07-29T17:51:06;8.20;;;3.65;;
40198;SDS011;25906;43.536;26.068;2022-07-29T17:53:52;4.07;;;3.47;;
40198;SDS011;25906;43.536;26.068;2022-07-29T17:56:39;5.03;;;3.30;;
40198;SDS011;25906;43.536;26.068;2022-07-29T17:59:28;4.07;;;3.20;;
40198;SDS011;25906;43.536;26.068;2022-07-29T18:02:16;5.80;;;3.40;;
40198;SDS011;25906;43.536;26.068;2022-07-29T18:05:04;5.07;;;3.53;;
40198;SDS011;25906;43.536;26.068;2022-07-29T18:07:50;5.47;;;3.75;;
40198;SDS011;25906;43.536;26.068;2022-07-29T18:10:36;3.75;;;3.08;;